sensor_id;sensor_type;location;lat;lon;timestamp;P1;durP1;ratioP1;P2;durP2;ratioP2
55003;SDS011;40900;52.710;6.438;2023-04-01T00:00:19;13.45;;;8.88;;
55003;SDS011;40900;52.710;6.438;2023-04-01T00:02:45;10.13;;;7.47;;
55003;SDS011;40900;52.710;6.438;2023-04-01T00:05:11;11.57;;;8.07;;
55003;SDS011;40900;52.710;6.438;2023-04-01T00:07:38;11.70;;;8.73;;
55003;SDS011;40900;52.710;6.438;2023-04-01T00:10:05;10.10;;;7.68;;
55003;SDS011;40900;52.710;6.438;2023-04-01T00:12:32;17.80;;;8.85;;
55003;SDS011;40900;52.710;6.438;2023-04-01T00:14:58;9.15;;;7.97;;
55003;SDS011;40900;52.710;6.438;2023-04-01T00:17:24;10.35;;;8.35;;
55003;SDS011;40900;52.710;6.438;2023-04-01T00:19:50;13.73;;;8.27;;
55003;SDS011;40900;52.710;6.438;2023-04-01T00:22:16;11.57;;;8.48;;
55003;SDS011;40900;52.710;6.438;2023-04-01T00:24:41;13.25;;;8.00;;
55003;SDS011;40900;52.710;6.438;2023-04-01T00:27:07;10.60;;;7.80;;
55003;SDS011;40900;52.710;6.438;2023-04-01T00:29:33;15.50;;;7.70;;
55003;SDS011;40900;52.710;6.438;2023-04-01T00:31:59;12.98;;;7.85;;
55003;SDS011;40900;52.710;6.438;2023-04-01T00:34:25;12.25;;;7.75;;
55003;SDS011;40900;52.710;6.438;2023-04-01T00:36:51;9.38;;;7.75;;
55003;SDS011;40900;52.710;6.438;2023-04-01T00:39:18;12.75;;;7.90;;
55003;SDS011;40900;52.710;6.438;2023-04-01T00:41:44;12.82;;;7.57;;
55003;SDS011;40900;52.710;6.438;2023-04-01T00:44:21;12.82;;;7.65;;
55003;SDS011;40900;52.710;6.438;2023-04-01T00:46:49;9.00;;;7.60;;
55003;SDS011;40900;52.710;6.438;2023-04-01T00:49:16;10.45;;;7.72;;
55003;SDS011;40900;52.710;6.438;2023-04-01T00:51:44;11.40;;;7.65;;
55003;SDS011;40900;52.710;6.438;2023-04-01T00:54:13;12.73;;;8.43;;
55003;SDS011;40900;52.710;6.438;2023-04-01T00:56:48;10.70;;;8.18;;
55003;SDS011;40900;52.710;6.438;2023-04-01T00:59:29;13.63;;;8.02;;
55003;SDS011;40900;52.710;6.438;2023-04-01T01:01:57;12.65;;;7.57;;
55003;SDS011;40900;52.710;6.438;2023-04-01T01:04:24;11.40;;;7.90;;
55003;SDS011;40900;52.710;6.438;2023-04-01T01:06:56;12.20;;;8.00;;
55003;SDS011;40900;52.710;6.438;2023-04-01T01:09:32;13.02;;;8.00;;
55003;SDS011;40900;52.710;6.438;2023-04-01T01:12:32;12.50;;;7.97;;
55003;SDS011;40900;52.710;6.438;2023-04-01T01:17:34;13.95;;;8.60;;
55003;SDS011;40900;52.710;6.438;2023-04-01T01:25:59;14.57;;;8.70;;
55003;SDS011;40900;52.710;6.438;2023-04-01T01:34:30;13.70;;;8.77;;
55003;SDS011;40900;52.710;6.438;2023-04-01T01:37:16;12.65;;;6.68;;
55003;SDS011;40900;52.710;6.438;2023-04-01T01:39:47;13.82;;;8.43;;
55003;SDS011;40900;52.710;6.438;2023-04-01T01:42:17;13.60;;;8.75;;
55003;SDS011;40900;52.710;6.438;2023-04-01T01:44:45;13.18;;;8.52;;
55003;SDS011;40900;52.710;6.438;2023-04-01T01:47:13;12.77;;;8.70;;
55003;SDS011;40900;52.710;6.438;2023-04-01T01:49:40;18.33;;;8.85;;
55003;SDS011;40900;52.710;6.438;2023-04-01T01:52:08;14.20;;;8.75;;
55003;SDS011;40900;52.710;6.438;2023-04-01T01:54:35;14.98;;;9.20;;
55003;SDS011;40900;52.710;6.438;2023-04-01T01:57:07;16.00;;;9.35;;
55003;SDS011;40900;52.710;6.438;2023-04-01T01:59:35;15.27;;;8.95;;
55003;SDS011;40900;52.710;6.438;2023-04-01T02:02:04;17.67;;;9.75;;
55003;SDS011;40900;52.710;6.438;2023-04-01T02:04:37;18.10;;;9.75;;
55003;SDS011;40900;52.710;6.438;2023-04-01T02:07:10;17.58;;;10.52;;
55003;SDS011;40900;52.710;6.438;2023-04-01T02:10:03;15.73;;;8.68;;
55003;SDS011;40900;52.710;6.438;2023-04-01T02:12:29;14.45;;;9.65;;
55003;SDS011;40900;52.710;6.438;2023-04-01T02:14:59;15.32;;;9.85;;
55003;SDS011;40900;52.710;6.438;2023-04-01T02:17:31;19.17;;;9.45;;
55003;SDS011;40900;52.710;6.438;2023-04-01T02:19:59;17.23;;;10.10;;
55003;SDS011;40900;52.710;6.438;2023-04-01T02:22:37;19.00;;;9.23;;
55003;SDS011;40900;52.710;6.438;2023-04-01T02:25:14;13.75;;;9.15;;
55003;SDS011;40900;52.710;6.438;2023-04-01T02:27:43;15.98;;;9.90;;
55003;SDS011;40900;52.710;6.438;2023-04-01T02:30:11;17.67;;;9.73;;
55003;SDS011;40900;52.710;6.438;2023-04-01T02:32:38;18.55;;;9.95;;
55003;SDS011;40900;52.710;6.438;2023-04-01T02:35:06;16.25;;;9.43;;
55003;SDS011;40900;52.710;6.438;2023-04-01T02:37:35;16.55;;;9.75;;
55003;SDS011;40900;52.710;6.438;2023-04-01T02:40:02;13.38;;;9.98;;
55003;SDS011;40900;52.710;6.438;2023-04-01T02:42:31;18.38;;;10.60;;
55003;SDS011;40900;52.710;6.438;2023-04-01T02:44:58;16.02;;;9.95;;
55003;SDS011;40900;52.710;6.438;2023-04-01T02:47:23;15.38;;;9.50;;
55003;SDS011;40900;52.710;6.438;2023-04-01T02:49:49;14.05;;;9.63;;
55003;SDS011;40900;52.710;6.438;2023-04-01T02:52:15;14.55;;;9.85;;
55003;SDS011;40900;52.710;6.438;2023-04-01T02:54:41;14.32;;;10.30;;
55003;SDS011;40900;52.710;6.438;2023-04-01T02:57:07;16.60;;;10.73;;
55003;SDS011;40900;52.710;6.438;2023-04-01T02:59:32;16.58;;;10.52;;
55003;SDS011;40900;52.710;6.438;2023-04-01T03:01:58;14.15;;;9.55;;
55003;SDS011;40900;52.710;6.438;2023-04-01T03:04:24;17.20;;;10.07;;
55003;SDS011;40900;52.710;6.438;2023-04-01T03:06:50;14.40;;;10.43;;
55003;SDS011;40900;52.710;6.438;2023-04-01T03:09:16;19.02;;;10.93;;
55003;SDS011;40900;52.710;6.438;2023-04-01T03:11:42;15.88;;;10.93;;
55003;SDS011;40900;52.710;6.438;2023-04-01T03:14:08;16.58;;;10.82;;
55003;SDS011;40900;52.710;6.438;2023-04-01T03:16:34;18.92;;;11.50;;
55003;SDS011;40900;52.710;6.438;2023-04-01T03:18:59;19.38;;;11.25;;
55003;SDS011;40900;52.710;6.438;2023-04-01T03:21:27;18.33;;;10.85;;
55003;SDS011;40900;52.710;6.438;2023-04-01T03:23:53;17.05;;;10.75;;
55003;SDS011;40900;52.710;6.438;2023-04-01T03:26:18;17.55;;;11.00;;
55003;SDS011;40900;52.710;6.438;2023-04-01T03:28:45;19.83;;;11.10;;
55003;SDS011;40900;52.710;6.438;2023-04-01T03:31:10;18.33;;;10.63;;
55003;SDS011;40900;52.710;6.438;2023-04-01T03:33:37;19.65;;;10.80;;
55003;SDS011;40900;52.710;6.438;2023-04-01T03:36:03;20.10;;;10.85;;
55003;SDS011;40900;52.710;6.438;2023-04-01T03:38:32;18.55;;;10.50;;
55003;SDS011;40900;52.710;6.438;2023-04-01T03:40:58;22.48;;;11.43;;
55003;SDS011;40900;52.710;6.438;2023-04-01T03:43:24;16.40;;;10.18;;
55003;SDS011;40900;52.710;6.438;2023-04-01T03:45:51;15.65;;;9.75;;
55003;SDS011;40900;52.710;6.438;2023-04-01T03:48:16;18.88;;;10.27;;
55003;SDS011;40900;52.710;6.438;2023-04-01T03:50:43;19.70;;;11.05;;
55003;SDS011;40900;52.710;6.438;2023-04-01T03:53:09;16.35;;;10.30;;
55003;SDS011;40900;52.710;6.438;2023-04-01T03:55:35;20.02;;;10.77;;
55003;SDS011;40900;52.710;6.438;2023-04-01T03:58:02;24.42;;;11.20;;
55003;SDS011;40900;52.710;6.438;2023-04-01T04:00:29;19.52;;;10.55;;
55003;SDS011;40900;52.710;6.438;2023-04-01T04:02:55;18.13;;;10.52;;
55003;SDS011;40900;52.710;6.438;2023-04-01T04:05:24;20.90;;;11.00;;
55003;SDS011;40900;52.710;6.438;2023-04-01T04:07:51;21.02;;;11.35;;
55003;SDS011;40900;52.710;6.438;2023-04-01T04:10:17;18.67;;;10.65;;
55003;SDS011;40900;52.710;6.438;2023-04-01T04:12:43;22.30;;;11.52;;
55003;SDS011;40900;52.710;6.438;2023-04-01T04:15:09;17.83;;;11.32;;
55003;SDS011;40900;52.710;6.438;2023-04-01T04:17:35;21.52;;;11.80;;
55003;SDS011;40900;52.710;6.438;2023-04-01T04:20:01;25.55;;;12.65;;
55003;SDS011;40900;52.710;6.438;2023-04-01T04:22:27;22.02;;;11.63;;
55003;SDS011;40900;52.710;6.438;2023-04-01T04:24:52;24.52;;;12.50;;
55003;SDS011;40900;52.710;6.438;2023-04-01T04:27:18;22.45;;;12.50;;
55003;SDS011;40900;52.710;6.438;2023-04-01T04:29:44;24.88;;;12.55;;
55003;SDS011;40900;52.710;6.438;2023-04-01T04:32:10;31.02;;;13.00;;
55003;SDS011;40900;52.710;6.438;2023-04-01T04:34:36;23.25;;;12.15;;
55003;SDS011;40900;52.710;6.438;2023-04-01T04:37:01;26.13;;;12.43;;
55003;SDS011;40900;52.710;6.438;2023-04-01T04:39:27;24.13;;;12.48;;
55003;SDS011;40900;52.710;6.438;2023-04-01T04:41:53;25.50;;;12.55;;
55003;SDS011;40900;52.710;6.438;2023-04-01T04:44:18;25.67;;;12.00;;
55003;SDS011;40900;52.710;6.438;2023-04-01T04:46:44;28.42;;;11.85;;
55003;SDS011;40900;52.710;6.438;2023-04-01T04:49:10;23.38;;;10.77;;
55003;SDS011;40900;52.710;6.438;2023-04-01T04:51:35;21.10;;;11.90;;
55003;SDS011;40900;52.710;6.438;2023-04-01T04:54:02;18.48;;;10.95;;
55003;SDS011;40900;52.710;6.438;2023-04-01T04:56:28;26.48;;;11.30;;
55003;SDS011;40900;52.710;6.438;2023-04-01T04:58:55;20.08;;;10.68;;
55003;SDS011;40900;52.710;6.438;2023-04-01T05:01:21;20.75;;;11.10;;
55003;SDS011;40900;52.710;6.438;2023-04-01T05:03:47;24.88;;;11.02;;
55003;SDS011;40900;52.710;6.438;2023-04-01T05:06:14;22.30;;;11.02;;
55003;SDS011;40900;52.710;6.438;2023-04-01T05:08:41;22.65;;;10.73;;
55003;SDS011;40900;52.710;6.438;2023-04-01T05:11:17;24.45;;;10.70;;
55003;SDS011;40900;52.710;6.438;2023-04-01T05:13:44;19.30;;;9.98;;
55003;SDS011;40900;52.710;6.438;2023-04-01T05:16:11;22.90;;;10.88;;
55003;SDS011;40900;52.710;6.438;2023-04-01T05:18:39;21.25;;;9.98;;
55003;SDS011;40900;52.710;6.438;2023-04-01T05:21:06;19.10;;;9.90;;
55003;SDS011;40900;52.710;6.438;2023-04-01T05:23:33;23.55;;;10.57;;
55003;SDS011;40900;52.710;6.438;2023-04-01T05:26:04;24.48;;;9.88;;
55003;SDS011;40900;52.710;6.438;2023-04-01T05:28:31;17.35;;;9.75;;
55003;SDS011;40900;52.710;6.438;2023-04-01T05:30:58;21.75;;;10.25;;
55003;SDS011;40900;52.710;6.438;2023-04-01T05:33:25;22.83;;;10.38;;
55003;SDS011;40900;52.710;6.438;2023-04-01T05:35:52;24.80;;;10.57;;
55003;SDS011;40900;52.710;6.438;2023-04-01T05:38:19;20.90;;;9.43;;
55003;SDS011;40900;52.710;6.438;2023-04-01T05:40:45;26.63;;;9.43;;
55003;SDS011;40900;52.710;6.438;2023-04-01T05:43:11;20.90;;;9.18;;
55003;SDS011;40900;52.710;6.438;2023-04-01T05:45:37;21.83;;;8.95;;
55003;SDS011;40900;52.710;6.438;2023-04-01T05:48:03;22.08;;;8.60;;
55003;SDS011;40900;52.710;6.438;2023-04-01T05:50:29;20.40;;;8.57;;
55003;SDS011;40900;52.710;6.438;2023-04-01T05:52:55;16.60;;;7.30;;
55003;SDS011;40900;52.710;6.438;2023-04-01T05:55:21;20.80;;;8.18;;
55003;SDS011;40900;52.710;6.438;2023-04-01T05:57:47;15.00;;;7.25;;
55003;SDS011;40900;52.710;6.438;2023-04-01T06:00:14;15.95;;;7.35;;
55003;SDS011;40900;52.710;6.438;2023-04-01T06:02:41;15.45;;;7.25;;
55003;SDS011;40900;52.710;6.438;2023-04-01T06:05:16;16.20;;;8.00;;
55003;SDS011;40900;52.710;6.438;2023-04-01T06:07:45;15.90;;;7.35;;
55003;SDS011;40900;52.710;6.438;2023-04-01T06:10:16;13.38;;;6.40;;
55003;SDS011;40900;52.710;6.438;2023-04-01T06:15:38;14.88;;;7.30;;
55003;SDS011;40900;52.710;6.438;2023-04-01T06:26:12;17.60;;;8.80;;
55003;SDS011;40900;52.710;6.438;2023-04-01T06:29:05;22.25;;;9.60;;
55003;SDS011;40900;52.710;6.438;2023-04-01T06:31:46;20.38;;;9.00;;
55003;SDS011;40900;52.710;6.438;2023-04-01T06:34:28;24.35;;;10.52;;
55003;SDS011;40900;52.710;6.438;2023-04-01T06:40:06;23.70;;;10.93;;
55003;SDS011;40900;52.710;6.438;2023-04-01T06:45:48;31.67;;;14.43;;
55003;SDS011;40900;52.710;6.438;2023-04-01T06:54:04;39.13;;;17.23;;
55003;SDS011;40900;52.710;6.438;2023-04-01T06:56:36;41.50;;;18.80;;
55003;SDS011;40900;52.710;6.438;2023-04-01T06:59:08;38.63;;;16.73;;
55003;SDS011;40900;52.710;6.438;2023-04-01T07:01:42;36.90;;;14.90;;
55003;SDS011;40900;52.710;6.438;2023-04-01T07:04:34;45.33;;;16.80;;
55003;SDS011;40900;52.710;6.438;2023-04-01T07:07:04;42.83;;;17.00;;
55003;SDS011;40900;52.710;6.438;2023-04-01T07:09:32;48.17;;;16.92;;
55003;SDS011;40900;52.710;6.438;2023-04-01T07:12:03;37.63;;;15.18;;
55003;SDS011;40900;52.710;6.438;2023-04-01T07:14:37;34.35;;;14.65;;
55003;SDS011;40900;52.710;6.438;2023-04-01T07:22:39;23.35;;;12.30;;
55003;SDS011;40900;52.710;6.438;2023-04-01T07:25:20;19.60;;;11.07;;
55003;SDS011;40900;52.710;6.438;2023-04-01T07:27:52;20.20;;;11.13;;
55003;SDS011;40900;52.710;6.438;2023-04-01T07:30:22;20.92;;;11.98;;
55003;SDS011;40900;52.710;6.438;2023-04-01T07:38:29;18.20;;;11.65;;
55003;SDS011;40900;52.710;6.438;2023-04-01T07:41:13;18.85;;;11.55;;
55003;SDS011;40900;52.710;6.438;2023-04-01T07:46:33;18.92;;;12.05;;
55003;SDS011;40900;52.710;6.438;2023-04-01T07:49:22;18.20;;;12.85;;
55003;SDS011;40900;52.710;6.438;2023-04-01T07:57:22;16.70;;;12.27;;
55003;SDS011;40900;52.710;6.438;2023-04-01T08:00:22;18.63;;;12.57;;
55003;SDS011;40900;52.710;6.438;2023-04-01T08:06:10;15.65;;;11.35;;
55003;SDS011;40900;52.710;6.438;2023-04-01T08:16:41;14.98;;;10.88;;
55003;SDS011;40900;52.710;6.438;2023-04-01T08:19:16;14.98;;;11.20;;
55003;SDS011;40900;52.710;6.438;2023-04-01T08:21:49;13.30;;;10.50;;
55003;SDS011;40900;52.710;6.438;2023-04-01T08:26:46;12.15;;;10.00;;
55003;SDS011;40900;52.710;6.438;2023-04-01T08:29:48;11.95;;;9.15;;
55003;SDS011;40900;52.710;6.438;2023-04-01T08:32:11;11.73;;;9.38;;
55003;SDS011;40900;52.710;6.438;2023-04-01T08:34:42;11.13;;;9.10;;
55003;SDS011;40900;52.710;6.438;2023-04-01T08:37:17;12.02;;;9.38;;
55003;SDS011;40900;52.710;6.438;2023-04-01T08:39:57;9.68;;;8.30;;
55003;SDS011;40900;52.710;6.438;2023-04-01T08:43:31;11.02;;;8.20;;
55003;SDS011;40900;52.710;6.438;2023-04-01T08:56:18;8.53;;;5.83;;
55003;SDS011;40900;52.710;6.438;2023-04-01T09:23:46;5.72;;;4.63;;
55003;SDS011;40900;52.710;6.438;2023-04-01T09:32:33;5.85;;;4.22;;
55003;SDS011;40900;52.710;6.438;2023-04-01T09:35:23;6.10;;;3.90;;
55003;SDS011;40900;52.710;6.438;2023-04-01T09:38:28;5.10;;;3.33;;
55003;SDS011;40900;52.710;6.438;2023-04-01T10:09:28;5.68;;;5.13;;
55003;SDS011;40900;52.710;6.438;2023-04-01T10:20:00;7.47;;;6.70;;
55003;SDS011;40900;52.710;6.438;2023-04-01T10:22:43;9.82;;;8.07;;
55003;SDS011;40900;52.710;6.438;2023-04-01T10:50:53;8.38;;;7.57;;
55003;SDS011;40900;52.710;6.438;2023-04-01T10:59:12;8.38;;;7.57;;
55003;SDS011;40900;52.710;6.438;2023-04-01T11:08:04;7.97;;;7.25;;
55003;SDS011;40900;52.710;6.438;2023-04-01T11:22:34;8.20;;;7.40;;
55003;SDS011;40900;52.710;6.438;2023-04-01T11:34:05;6.95;;;6.25;;
55003;SDS011;40900;52.710;6.438;2023-04-01T11:36:40;6.78;;;6.07;;
55003;SDS011;40900;52.710;6.438;2023-04-01T11:44:26;6.57;;;5.97;;
55003;SDS011;40900;52.710;6.438;2023-04-01T12:01:13;7.55;;;6.85;;
55003;SDS011;40900;52.710;6.438;2023-04-01T12:12:14;7.90;;;6.70;;
55003;SDS011;40900;52.710;6.438;2023-04-01T12:15:43;7.60;;;6.77;;
55003;SDS011;40900;52.710;6.438;2023-04-01T12:17:58;6.80;;;6.10;;
55003;SDS011;40900;52.710;6.438;2023-04-01T12:20:50;7.22;;;6.60;;
55003;SDS011;40900;52.710;6.438;2023-04-01T12:29:09;6.68;;;6.05;;
55003;SDS011;40900;52.710;6.438;2023-04-01T12:48:03;5.80;;;5.30;;
55003;SDS011;40900;52.710;6.438;2023-04-01T12:53:25;5.90;;;5.30;;
55003;SDS011;40900;52.710;6.438;2023-04-01T12:56:21;6.05;;;5.45;;
55003;SDS011;40900;52.710;6.438;2023-04-01T13:09:45;5.55;;;5.05;;
55003;SDS011;40900;52.710;6.438;2023-04-01T13:15:17;5.53;;;4.95;;
55003;SDS011;40900;52.710;6.438;2023-04-01T13:20:53;4.78;;;4.38;;
55003;SDS011;40900;52.710;6.438;2023-04-01T13:29:59;4.78;;;4.38;;
55003;SDS011;40900;52.710;6.438;2023-04-01T13:43:32;4.90;;;3.65;;
55003;SDS011;40900;52.710;6.438;2023-04-01T13:57:14;3.70;;;3.40;;
55003;SDS011;40900;52.710;6.438;2023-04-01T14:11:16;4.40;;;4.03;;
55003;SDS011;40900;52.710;6.438;2023-04-01T14:19:08;4.40;;;4.00;;
55003;SDS011;40900;52.710;6.438;2023-04-01T14:49:46;3.67;;;3.38;;
55003;SDS011;40900;52.710;6.438;2023-04-01T15:01:07;4.20;;;3.60;;
55003;SDS011;40900;52.710;6.438;2023-04-01T15:25:43;3.90;;;3.50;;
55003;SDS011;40900;52.710;6.438;2023-04-01T15:31:06;4.25;;;3.38;;
55003;SDS011;40900;52.710;6.438;2023-04-01T15:45:34;3.42;;;3.13;;
55003;SDS011;40900;52.710;6.438;2023-04-01T16:07:47;3.22;;;2.92;;
55003;SDS011;40900;52.710;6.438;2023-04-01T16:10:38;3.53;;;3.00;;
55003;SDS011;40900;52.710;6.438;2023-04-01T16:23:36;3.38;;;2.90;;
55003;SDS011;40900;52.710;6.438;2023-04-01T16:57:20;3.35;;;3.05;;
55003;SDS011;40900;52.710;6.438;2023-04-01T17:02:35;3.20;;;2.90;;
55003;SDS011;40900;52.710;6.438;2023-04-01T17:05:08;4.28;;;2.95;;
55003;SDS011;40900;52.710;6.438;2023-04-01T17:08:02;3.42;;;3.13;;
55003;SDS011;40900;52.710;6.438;2023-04-01T17:10:33;5.38;;;3.13;;
55003;SDS011;40900;52.710;6.438;2023-04-01T17:18:37;3.85;;;3.17;;
55003;SDS011;40900;52.710;6.438;2023-04-01T17:21:10;3.70;;;3.40;;
55003;SDS011;40900;52.710;6.438;2023-04-01T17:23:50;3.45;;;3.03;;
55003;SDS011;40900;52.710;6.438;2023-04-01T17:26:24;4.63;;;3.15;;
55003;SDS011;40900;52.710;6.438;2023-04-01T17:29:12;4.63;;;3.47;;
55003;SDS011;40900;52.710;6.438;2023-04-01T17:32:02;4.72;;;3.53;;
55003;SDS011;40900;52.710;6.438;2023-04-01T17:40:30;4.55;;;4.15;;
55003;SDS011;40900;52.710;6.438;2023-04-01T17:50:50;5.90;;;4.88;;
55003;SDS011;40900;52.710;6.438;2023-04-01T18:09:53;7.43;;;5.05;;
55003;SDS011;40900;52.710;6.438;2023-04-01T18:15:38;6.70;;;5.35;;
55003;SDS011;40900;52.710;6.438;2023-04-01T18:26:28;7.75;;;5.25;;
55003;SDS011;40900;52.710;6.438;2023-04-01T18:31:47;7.18;;;4.82;;
55003;SDS011;40900;52.710;6.438;2023-04-01T18:40:22;6.82;;;4.97;;
55003;SDS011;40900;52.710;6.438;2023-04-01T18:42:57;5.60;;;4.93;;
55003;SDS011;40900;52.710;6.438;2023-04-01T18:45:50;6.85;;;5.45;;
55003;SDS011;40900;52.710;6.438;2023-04-01T18:53:53;5.30;;;4.80;;
55003;SDS011;40900;52.710;6.438;2023-04-01T18:56:27;7.65;;;5.95;;
55003;SDS011;40900;52.710;6.438;2023-04-01T19:04:43;6.80;;;6.10;;
55003;SDS011;40900;52.710;6.438;2023-04-01T19:09:53;7.70;;;6.85;;
55003;SDS011;40900;52.710;6.438;2023-04-01T19:12:34;7.32;;;6.63;;
55003;SDS011;40900;52.710;6.438;2023-04-01T19:18:59;8.27;;;7.18;;
55003;SDS011;40900;52.710;6.438;2023-04-01T19:21:18;9.60;;;7.18;;
55003;SDS011;40900;52.710;6.438;2023-04-01T19:43:42;10.25;;;7.28;;
55003;SDS011;40900;52.710;6.438;2023-04-01T19:46:16;8.52;;;7.13;;
55003;SDS011;40900;52.710;6.438;2023-04-01T19:54:45;11.30;;;7.90;;
55003;SDS011;40900;52.710;6.438;2023-04-01T19:57:26;10.10;;;7.95;;
55003;SDS011;40900;52.710;6.438;2023-04-01T20:08:13;12.07;;;8.98;;
55003;SDS011;40900;52.710;6.438;2023-04-01T20:16:04;15.50;;;8.77;;
55003;SDS011;40900;52.710;6.438;2023-04-01T20:18:49;13.32;;;8.75;;
55003;SDS011;40900;52.710;6.438;2023-04-01T20:21:28;14.27;;;9.10;;
55003;SDS011;40900;52.710;6.438;2023-04-01T20:24:17;15.27;;;8.52;;
55003;SDS011;40900;52.710;6.438;2023-04-01T20:26:50;12.95;;;9.00;;
55003;SDS011;40900;52.710;6.438;2023-04-01T20:29:36;12.63;;;9.02;;
55003;SDS011;40900;52.710;6.438;2023-04-01T20:35:19;13.38;;;9.07;;
55003;SDS011;40900;52.710;6.438;2023-04-01T20:54:52;13.32;;;8.95;;
55003;SDS011;40900;52.710;6.438;2023-04-01T20:57:25;14.20;;;9.80;;
55003;SDS011;40900;52.710;6.438;2023-04-01T21:00:23;15.82;;;9.90;;
55003;SDS011;40900;52.710;6.438;2023-04-01T21:08:14;14.43;;;9.77;;
55003;SDS011;40900;52.710;6.438;2023-04-01T21:16:23;16.23;;;9.68;;
55003;SDS011;40900;52.710;6.438;2023-04-01T21:22:27;14.93;;;9.18;;
55003;SDS011;40900;52.710;6.438;2023-04-01T21:41:20;16.25;;;10.45;;
55003;SDS011;40900;52.710;6.438;2023-04-01T21:44:15;17.40;;;9.82;;
55003;SDS011;40900;52.710;6.438;2023-04-01T21:47:08;15.77;;;10.18;;
55003;SDS011;40900;52.710;6.438;2023-04-01T21:52:49;18.42;;;9.82;;
55003;SDS011;40900;52.710;6.438;2023-04-01T22:06:08;21.70;;;9.77;;
55003;SDS011;40900;52.710;6.438;2023-04-01T22:11:32;17.45;;;9.93;;
55003;SDS011;40900;52.710;6.438;2023-04-01T22:14:15;14.95;;;9.27;;
55003;SDS011;40900;52.710;6.438;2023-04-01T22:17:02;12.20;;;9.68;;
55003;SDS011;40900;52.710;6.438;2023-04-01T22:19:40;16.90;;;10.27;;
55003;SDS011;40900;52.710;6.438;2023-04-01T22:33:00;15.70;;;9.93;;
55003;SDS011;40900;52.710;6.438;2023-04-01T22:38:11;18.75;;;9.93;;
55003;SDS011;40900;52.710;6.438;2023-04-01T22:41:07;15.02;;;9.43;;
55003;SDS011;40900;52.710;6.438;2023-04-01T22:43:45;18.95;;;10.20;;
55003;SDS011;40900;52.710;6.438;2023-04-01T22:48:49;15.90;;;9.77;;
55003;SDS011;40900;52.710;6.438;2023-04-01T22:51:52;19.00;;;9.98;;
55003;SDS011;40900;52.710;6.438;2023-04-01T22:54:21;16.13;;;9.60;;
55003;SDS011;40900;52.710;6.438;2023-04-01T23:01:55;14.90;;;9.23;;
55003;SDS011;40900;52.710;6.438;2023-04-01T23:04:28;18.02;;;9.73;;
55003;SDS011;40900;52.710;6.438;2023-04-01T23:06:57;16.15;;;9.23;;
55003;SDS011;40900;52.710;6.438;2023-04-01T23:09:30;14.90;;;8.75;;
55003;SDS011;40900;52.710;6.438;2023-04-01T23:12:03;15.18;;;8.82;;
55003;SDS011;40900;52.710;6.438;2023-04-01T23:19:55;17.13;;;8.90;;
55003;SDS011;40900;52.710;6.438;2023-04-01T23:25:16;17.92;;;9.00;;
55003;SDS011;40900;52.710;6.438;2023-04-01T23:35:48;15.05;;;8.55;;
55003;SDS011;40900;52.710;6.438;2023-04-01T23:38:16;13.80;;;8.65;;
55003;SDS011;40900;52.710;6.438;2023-04-01T23:40:43;12.85;;;8.50;;
55003;SDS011;40900;52.710;6.438;2023-04-01T23:43:13;12.70;;;8.40;;
55003;SDS011;40900;52.710;6.438;2023-04-01T23:45:51;13.50;;;7.55;;
55003;SDS011;40900;52.710;6.438;2023-04-01T23:48:22;10.00;;;7.65;;
55003;SDS011;40900;52.710;6.438;2023-04-01T23:50:54;15.40;;;7.60;;
55003;SDS011;40900;52.710;6.438;2023-04-01T23:53:26;13.65;;;7.15;;
55003;SDS011;40900;52.710;6.438;2023-04-01T23:55:55;12.00;;;7.40;;
